Time;durP1;ratioP1;P1;durP2;ratioP2;P2;SDS_P1;SDS_P2;PMS_P1;PMS_P2;Temp;Humidity;BMP_temperature;BMP_pressure;BME280_temperature;BME280_humidity;BME280_pressure;Samples;Min_cycle;Max_cycle;Signal;HPM_P1;HPM_P2
2022/05/20 00:00:30;;;;;;;2.42;1.90;;;25.00;49.10;;;;;;5095999;28;20091;-58
2022/05/20 00:02:56;;;;;;;2.20;1.90;;;25.10;49.10;;;;;;5094720;28;20501;-58
2022/05/20 00:05:23;;;;;;;2.20;1.85;;;25.10;49.10;;;;;;5095384;28;20031;-58
2022/05/20 00:07:50;;;;;;;2.95;1.90;;;25.10;49.10;;;;;;5095536;28;20008;-58
2022/05/20 00:10:17;;;;;;;2.72;1.92;;;25.00;49.10;;;;;;5095817;28;20028;-58
2022/05/20 00:12:43;;;;;;;2.25;2.05;;;25.00;49.10;;;;;;5095488;28;20009;-58
2022/05/20 00:15:11;;;;;;;2.85;2.08;;;25.10;49.10;;;;;;5095743;28;20020;-58
2022/05/20 00:17:37;;;;;;;2.35;2.13;;;25.10;49.10;;;;;;5095322;28;20493;-58
2022/05/20 00:20:04;;;;;;;3.22;2.05;;;25.00;49.10;;;;;;5095372;28;20028;-58
2022/05/20 00:22:31;;;;;;;2.72;2.15;;;25.00;49.20;;;;;;5095248;28;20036;-58
2022/05/20 00:27:41;;;;;;;2.92;2.05;;;25.00;49.20;;;;;;5095690;28;20028;-57
2022/05/20 00:30:09;;;;;;;3.95;2.13;;;25.00;49.20;;;;;;5095382;28;20016;-57
2022/05/20 00:32:36;;;;;;;2.08;1.88;;;25.00;49.20;;;;;;5095490;28;20047;-57
2022/05/20 00:35:02;;;;;;;2.30;2.00;;;25.00;49.30;;;;;;5095344;28;20095;-58
2022/05/20 00:37:28;;;;;;;2.67;2.03;;;25.00;49.30;;;;;;5095276;28;20093;-57
2022/05/20 00:39:54;;;;;;;3.47;2.15;;;25.00;49.30;;;;;;5095682;28;20161;-57
2022/05/20 00:42:21;;;;;;;2.78;2.10;;;25.00;49.20;;;;;;5095429;28;20078;-55
2022/05/20 00:44:48;;;;;;;3.83;2.25;;;25.00;49.20;;;;;;5094733;28;20099;-56
2022/05/20 00:47:14;;;;;;;2.75;2.08;;;25.00;49.30;;;;;;5095164;28;20055;-56
2022/05/20 00:49:43;;;;;;;2.63;2.03;;;25.00;49.30;;;;;;5095048;28;20062;-57
2022/05/20 00:52:10;;;;;;;2.70;1.85;;;25.00;49.30;;;;;;5094991;28;20020;-55
2022/05/20 00:54:40;;;;;;;2.95;2.00;;;25.00;49.30;;;;;;5094953;28;20100;-57
2022/05/20 00:57:09;;;;;;;2.88;2.50;;;25.00;49.30;;;;;;5060601;28;20054;-57
2022/05/20 00:59:37;;;;;;;4.32;2.20;;;25.00;49.30;;;;;;5094977;28;20015;-58
2022/05/20 01:02:06;;;;;;;2.83;1.95;;;25.00;49.40;;;;;;5094563;28;20020;-57
2022/05/20 01:04:32;;;;;;;2.58;2.00;;;25.00;49.40;;;;;;5060638;28;20024;-57
2022/05/20 01:06:58;;;;;;;3.55;2.47;;;25.00;49.40;;;;;;5059710;28;20528;-57
2022/05/20 01:09:24;;;;;;;3.08;2.40;;;25.00;49.90;;;;;;5076708;28;20008;-58
2022/05/20 01:11:51;;;;;;;2.53;2.33;;;25.00;49.40;;;;;;5094559;28;20024;-57
2022/05/20 01:14:22;;;;;;;3.15;1.92;;;25.00;49.40;;;;;;5076097;28;20012;-57
2022/05/20 01:16:48;;;;;;;3.53;2.42;;;25.00;49.40;;;;;;5076592;28;20066;-57
2022/05/20 01:19:19;;;;;;;4.82;2.15;;;25.00;49.40;;;;;;5076099;28;20486;-57
2022/05/20 01:21:45;;;;;;;2.20;2.00;;;25.00;49.40;;;;;;5094211;28;20060;-57
2022/05/20 01:24:12;;;;;;;2.55;2.30;;;25.00;49.40;;;;;;5094089;28;20043;-57
2022/05/20 01:26:38;;;;;;;2.95;2.25;;;25.00;49.40;;;;;;5093987;28;20023;-56
2022/05/20 01:29:06;;;;;;;3.33;2.22;;;24.90;49.40;;;;;;5094243;28;20101;-56
2022/05/20 01:31:32;;;;;;;3.03;2.25;;;25.00;49.40;;;;;;5059778;28;20087;-57
2022/05/20 01:33:58;;;;;;;3.47;2.13;;;24.90;49.40;;;;;;5076166;28;20542;-57
2022/05/20 01:36:24;;;;;;;2.70;2.13;;;25.00;49.50;;;;;;5093919;28;20074;-57
2022/05/20 01:38:52;;;;;;;2.35;2.15;;;24.90;49.50;;;;;;5094065;28;20020;-57
2022/05/20 01:41:34;;;;;;;2.25;2.05;;;24.90;49.40;;;;;;5094094;28;20029;-57
2022/05/20 01:44:15;;;;;;;3.22;2.40;;;24.90;49.40;;;;;;5093564;28;20498;-56
2022/05/20 01:46:55;;;;;;;2.63;2.13;;;24.90;49.50;;;;;;5093760;28;20024;-57
2022/05/20 01:49:55;;;;;;;2.40;2.20;;;24.90;49.50;;;;;;5076574;28;20007;-57
2022/05/20 01:52:58;;;;;;;3.20;2.20;;;24.90;49.50;;;;;;5093894;28;20024;-57
2022/05/20 01:55:33;;;;;;;2.00;1.90;;;24.90;49.50;;;;;;4999734;28;20084;-57
2022/05/20 01:58:07;;;;;;;2.90;2.10;;;24.90;49.50;;;;;;4995928;28;20140;-55
2022/05/20 02:00:33;;;;;;;2.53;2.10;;;24.90;49.50;;;;;;5011379;28;20477;-57
2022/05/20 02:03:22;;;;;;;2.85;2.30;;;24.90;49.40;;;;;;5011453;28;20097;-57
2022/05/20 02:06:09;;;;;;;3.17;2.65;;;24.90;49.50;;;;;;4994953;28;20034;-56
2022/05/20 02:08:48;;;;;;;3.35;2.35;;;24.90;49.50;;;;;;4995061;28;20097;-57
2022/05/20 02:11:16;;;;;;;2.83;2.28;;;24.90;49.50;;;;;;5011245;28;20034;-57
2022/05/20 02:13:45;;;;;;;2.85;2.20;;;24.80;49.50;;;;;;5011254;28;20026;-57
2022/05/20 02:16:21;;;;;;;2.70;2.50;;;24.80;49.60;;;;;;4995270;28;20022;-57
2022/05/20 02:18:59;;;;;;;3.30;2.20;;;24.80;49.60;;;;;;4995911;28;20036;-57
2022/05/20 02:21:27;;;;;;;2.33;2.03;;;24.80;49.60;;;;;;5011002;28;20017;-57
2022/05/20 02:23:57;;;;;;;2.50;2.30;;;24.80;49.60;;;;;;4994886;28;20492;-57
2022/05/20 02:26:24;;;;;;;2.35;2.15;;;24.80;49.60;;;;;;4962301;28;20029;-56
2022/05/20 02:29:00;;;;;;;3.05;2.17;;;24.80;49.50;;;;;;5011237;28;20050;-58
2022/05/20 02:31:47;;;;;;;3.00;2.60;;;24.90;49.60;;;;;;5067337;28;20024;-57
2022/05/20 02:34:13;;;;;;;3.20;2.13;;;24.80;49.60;;;;;;5075848;28;20065;-57
2022/05/20 02:36:40;;;;;;;2.97;2.10;;;24.90;49.60;;;;;;5092882;28;20020;-57
2022/05/20 02:39:15;;;;;;;2.95;2.33;;;24.80;49.60;;;;;;5093177;28;20024;-57
2022/05/20 02:41:44;;;;;;;2.55;2.35;;;24.80;49.60;;;;;;5092803;28;20027;-57
2022/05/20 02:44:11;;;;;;;2.58;2.28;;;24.80;49.60;;;;;;5093164;28;20052;-58
2022/05/20 02:46:38;;;;;;;2.95;2.35;;;24.80;49.60;;;;;;5093044;28;20061;-57
2022/05/20 02:49:04;;;;;;;4.78;2.47;;;24.80;49.60;;;;;;5092946;28;20031;-57
2022/05/20 02:51:30;;;;;;;2.30;2.10;;;24.80;49.60;;;;;;5093056;28;20008;-57
2022/05/20 02:53:55;;;;;;;3.03;2.20;;;24.80;49.60;;;;;;5092786;28;20020;-57
2022/05/20 02:56:22;;;;;;;2.42;2.20;;;24.80;49.60;;;;;;5075148;28;20020;-57
2022/05/20 03:04:17;;;;;;;2.47;2.22;;;24.80;50.20;;;;;;5092582;28;20559;-57
2022/05/20 03:06:50;;;;;;;3.22;2.35;;;24.80;49.60;;;;;;5074531;28;20024;-57
2022/05/20 03:09:17;;;;;;;3.17;2.40;;;24.80;49.60;;;;;;5092554;28;20016;-57
2022/05/20 03:11:43;;;;;;;3.28;2.80;;;24.80;49.60;;;;;;5092513;28;20012;-57
2022/05/20 03:14:10;;;;;;;3.58;2.40;;;24.80;49.60;;;;;;5092459;28;20012;-57
2022/05/20 03:16:37;;;;;;;3.22;2.40;;;24.80;49.70;;;;;;5092512;28;20505;-57
2022/05/20 03:19:04;;;;;;;3.75;2.17;;;24.80;49.70;;;;;;5092446;28;20017;-56
2022/05/20 03:21:30;;;;;;;4.28;2.63;;;24.80;49.70;;;;;;5092362;28;20099;-57
2022/05/20 03:23:55;;;;;;;2.53;2.33;;;24.80;49.70;;;;;;5092670;28;20154;-57
2022/05/20 03:26:22;;;;;;;2.70;2.15;;;24.80;49.70;;;;;;5092717;28;20027;-57
2022/05/20 03:28:47;;;;;;;2.65;2.45;;;24.80;49.70;;;;;;5092410;28;20519;-57
2022/05/20 03:31:13;;;;;;;2.55;2.30;;;24.80;49.70;;;;;;5092453;28;20494;-57
2022/05/20 03:33:40;;;;;;;3.13;2.30;;;24.80;49.70;;;;;;5092327;28;20101;-57
2022/05/20 03:36:06;;;;;;;4.47;2.45;;;24.80;49.60;;;;;;5092626;28;20106;-57
2022/05/20 03:38:33;;;;;;;2.60;2.40;;;24.80;49.70;;;;;;5094566;28;20579;-57
2022/05/20 03:40:58;;;;;;;4.60;2.30;;;24.80;49.70;;;;;;5077982;28;20047;-57
2022/05/20 03:43:24;;;;;;;3.05;2.05;;;24.80;49.80;;;;;;5077860;28;20491;-57
2022/05/20 03:45:51;;;;;;;2.72;2.30;;;24.70;49.80;;;;;;5096101;28;20412;-57
2022/05/20 03:48:17;;;;;;;2.63;2.28;;;24.80;49.80;;;;;;5095922;28;20040;-57
2022/05/20 03:50:43;;;;;;;2.28;2.00;;;24.80;49.70;;;;;;5077915;28;20141;-57
2022/05/20 03:53:09;;;;;;;3.80;2.67;;;24.70;49.70;;;;;;5061331;28;20020;-57
2022/05/20 03:55:35;;;;;;;2.45;2.25;;;24.80;49.70;;;;;;5095781;28;20020;-57
2022/05/20 03:58:01;;;;;;;2.22;2.03;;;24.80;49.70;;;;;;5096047;28;20035;-56
2022/05/20 04:00:27;;;;;;;3.75;2.20;;;24.80;49.70;;;;;;5077715;28;20424;-57
2022/05/20 04:02:53;;;;;;;4.43;2.40;;;24.80;50.30;;;;;;5095692;28;20024;-57
2022/05/20 04:05:19;;;;;;;2.50;2.30;;;24.80;49.70;;;;;;5095483;28;20081;-57
2022/05/20 04:07:45;;;;;;;2.78;2.58;;;24.80;49.70;;;;;;5095601;28;20103;-56
2022/05/20 04:10:11;;;;;;;2.92;2.53;;;24.80;50.30;;;;;;5095523;28;20416;-57
2022/05/20 04:12:41;;;;;;;3.58;2.50;;;24.70;49.70;;;;;;5095487;28;20046;-57
2022/05/20 04:15:09;;;;;;;2.20;2.00;;;24.80;49.80;;;;;;5077867;28;20012;-58
2022/05/20 04:17:35;;;;;;;2.60;2.20;;;24.70;49.70;;;;;;5095717;28;20017;-57
2022/05/20 04:20:01;;;;;;;2.58;2.38;;;24.80;49.80;;;;;;5095666;28;20012;-57
2022/05/20 04:22:28;;;;;;;2.88;2.25;;;24.70;49.70;;;;;;5095392;28;20376;-57
2022/05/20 04:24:54;;;;;;;3.30;2.40;;;24.80;49.80;;;;;;5077265;28;20030;-58
2022/05/20 04:27:20;;;;;;;3.13;2.50;;;24.70;49.70;;;;;;5095319;28;20087;-57
2022/05/20 04:29:45;;;;;;;3.33;2.38;;;24.70;49.90;;;;;;5095378;28;20498;-57
2022/05/20 04:32:11;;;;;;;2.40;2.20;;;24.70;49.80;;;;;;5095232;28;20150;-57
2022/05/20 04:34:37;;;;;;;2.63;2.17;;;24.70;49.80;;;;;;5060266;28;20110;-57
2022/05/20 04:37:03;;;;;;;2.33;1.95;;;24.70;49.80;;;;;;5095380;28;20470;-56
2022/05/20 04:39:29;;;;;;;3.25;2.20;;;24.70;49.80;;;;;;5077014;28;20024;-56
2022/05/20 04:47:26;;;;;;;2.60;2.15;;;24.70;49.80;;;;;;5094968;28;20038;-57
2022/05/20 04:49:52;;;;;;;2.50;2.30;;;24.70;49.80;;;;;;5094548;28;20043;-56
2022/05/20 04:52:18;;;;;;;2.33;2.05;;;24.70;49.80;;;;;;5095186;28;20463;-57
2022/05/20 04:54:50;;;;;;;2.60;2.40;;;24.70;49.80;;;;;;5076797;28;20471;-55
2022/05/20 04:57:24;;;;;;;2.30;2.10;;;24.70;49.80;;;;;;5061919;28;20150;-56
2022/05/20 04:59:53;;;;;;;2.97;2.33;;;24.70;49.80;;;;;;5094654;28;20012;-57
2022/05/20 05:02:19;;;;;;;2.40;2.17;;;24.70;49.80;;;;;;5094828;28;20034;-57
2022/05/20 05:04:45;;;;;;;3.80;2.38;;;24.70;49.80;;;;;;5094740;28;20475;-54
2022/05/20 05:07:11;;;;;;;2.95;2.35;;;24.70;49.80;;;;;;5094659;28;20016;-56
2022/05/20 05:09:40;;;;;;;3.00;2.38;;;24.70;49.80;;;;;;5094657;28;20008;-57
2022/05/20 05:12:07;;;;;;;4.03;2.10;;;24.70;49.80;;;;;;5094672;28;20008;-57
2022/05/20 05:14:41;;;;;;;2.78;2.40;;;24.70;49.70;;;;;;5094241;28;20024;-57
2022/05/20 05:17:08;;;;;;;2.53;2.33;;;24.70;49.80;;;;;;5094568;28;20015;-57
2022/05/20 05:19:35;;;;;;;3.58;2.47;;;24.70;49.70;;;;;;5094432;28;20098;-57
2022/05/20 05:22:01;;;;;;;2.53;2.30;;;24.70;49.70;;;;;;5094339;28;20067;-58
2022/05/20 05:24:27;;;;;;;3.85;2.90;;;24.70;49.70;;;;;;5094375;28;20024;-57
2022/05/20 05:26:53;;;;;;;2.90;2.13;;;24.70;49.70;;;;;;5094046;28;20543;-56
2022/05/20 05:29:19;;;;;;;2.70;2.40;;;24.70;49.70;;;;;;5076212;28;20012;-58
2022/05/20 05:31:45;;;;;;;2.58;2.25;;;24.80;49.70;;;;;;5094105;28;20035;-56
2022/05/20 05:34:11;;;;;;;3.05;2.38;;;24.80;49.70;;;;;;5059708;28;20024;-57
2022/05/20 05:36:37;;;;;;;3.78;2.40;;;24.80;49.70;;;;;;5093864;28;20558;-57
2022/05/20 05:39:03;;;;;;;2.92;2.42;;;24.80;49.60;;;;;;5075611;28;20536;-57
2022/05/20 05:41:30;;;;;;;2.97;2.60;;;24.80;50.20;;;;;;5093860;28;20028;-57
2022/05/20 05:44:01;;;;;;;3.60;2.50;;;24.70;49.60;;;;;;5093861;28;20028;-57
2022/05/20 05:46:26;;;;;;;2.83;2.33;;;24.80;49.70;;;;;;5093739;28;20021;-57
2022/05/20 05:48:52;;;;;;;2.63;2.42;;;24.70;49.60;;;;;;5075287;28;20038;-57
2022/05/20 05:51:18;;;;;;;2.67;2.35;;;24.80;49.60;;;;;;5093239;28;20015;-57
2022/05/20 05:53:44;;;;;;;3.30;2.33;;;24.80;49.60;;;;;;5093165;28;20027;-57
2022/05/20 05:56:10;;;;;;;4.40;2.47;;;24.80;49.60;;;;;;5041434;28;20466;-57
2022/05/20 05:58:37;;;;;;;2.60;2.40;;;24.80;49.60;;;;;;5075145;28;20032;-58
2022/05/20 06:01:03;;;;;;;3.28;2.40;;;24.80;50.20;;;;;;5091934;28;20016;-56
2022/05/20 06:03:29;;;;;;;2.60;2.38;;;24.80;49.60;;;;;;5092475;28;20009;-56
2022/05/20 06:05:55;;;;;;;2.55;2.35;;;24.80;49.60;;;;;;5092317;28;20540;-56
2022/05/20 06:08:21;;;;;;;2.92;2.40;;;24.80;49.60;;;;;;5074343;28;20440;-58
2022/05/20 06:10:48;;;;;;;2.80;2.35;;;24.80;49.60;;;;;;5091891;28;20083;-57
2022/05/20 06:13:24;;;;;;;3.13;2.47;;;24.80;49.50;;;;;;5091827;28;20538;-54
2022/05/20 06:15:52;;;;;;;2.85;2.38;;;24.80;49.50;;;;;;5091464;28;20016;-57
2022/05/20 06:18:18;;;;;;;2.80;2.45;;;24.80;49.50;;;;;;5091296;28;20039;-58
2022/05/20 06:20:44;;;;;;;3.50;2.47;;;24.80;49.50;;;;;;5072755;28;20374;-54
2022/05/20 06:23:10;;;;;;;2.63;2.30;;;24.80;49.50;;;;;;5070677;28;20054;-55
2022/05/20 06:25:37;;;;;;;4.30;2.63;;;24.80;49.50;;;;;;5055945;28;20047;-52
2022/05/20 06:28:08;;;;;;;9.75;4.13;;;24.80;49.60;;;;;;5073669;28;20093;-48
2022/05/20 06:30:34;;;;;;;24.45;6.10;;;25.00;51.60;;;;;;5091606;28;20070;-52
2022/05/20 06:33:00;;;;;;;17.38;6.22;;;25.10;52.90;;;;;;5091455;28;20024;-47
2022/05/20 06:40:55;;;;;;;16.75;8.13;;;25.30;53.80;;;;;;5091165;28;20130;-46
2022/05/20 06:43:22;;;;;;;15.93;8.68;;;25.40;53.80;;;;;;5091648;28;20024;-47
2022/05/20 06:45:49;;;;;;;18.42;10.13;;;25.50;53.70;;;;;;5091791;28;20032;-53
2022/05/20 06:48:16;;;;;;;25.35;10.98;;;25.50;53.70;;;;;;5057853;28;20099;-52
2022/05/20 06:50:42;;;;;;;16.60;10.00;;;25.60;53.50;;;;;;5092311;28;20339;-51
2022/05/20 06:53:08;;;;;;;21.48;11.32;;;25.60;54.10;;;;;;5092188;28;20097;-52
2022/05/20 06:55:34;;;;;;;21.20;11.50;;;25.60;53.50;;;;;;5073862;28;20044;-52
2022/05/20 06:58:00;;;;;;;21.88;11.75;;;25.70;53.40;;;;;;5091860;28;20074;-53
2022/05/20 07:00:26;;;;;;;16.23;10.40;;;25.70;53.30;;;;;;5091385;28;20024;-54
2022/05/20 07:02:52;;;;;;;18.08;11.77;;;25.70;53.20;;;;;;5073349;28;20545;-54
2022/05/20 07:05:18;;;;;;;21.10;12.18;;;25.70;53.10;;;;;;5091089;28;20497;-55
2022/05/20 07:07:44;;;;;;;20.10;12.45;;;25.80;53.20;;;;;;5091441;28;20031;-53
2022/05/20 07:10:11;;;;;;;19.08;12.32;;;25.80;53.00;;;;;;5091497;28;20471;-55
2022/05/20 07:12:38;;;;;;;29.65;13.20;;;25.80;53.20;;;;;;5056552;28;20035;-55
2022/05/20 07:15:04;;;;;;;25.88;13.20;;;25.80;53.30;;;;;;5094517;28;20085;-52
2022/05/20 07:17:31;;;;;;;26.45;15.73;;;25.70;53.10;;;;;;5059429;28;20084;-53
2022/05/20 07:19:57;;;;;;;31.70;16.20;;;25.50;52.10;;;;;;5095252;28;20084;-55
2022/05/20 07:22:23;;;;;;;22.95;16.10;;;25.20;53.00;;;;;;5094620;28;20229;-55
2022/05/20 07:24:50;;;;;;;31.73;17.92;;;25.00;53.30;;;;;;5094099;28;20024;-55
2022/05/20 07:27:16;;;;;;;34.88;19.20;;;25.00;53.40;;;;;;5075964;28;20027;-57
2022/05/20 07:29:42;;;;;;;25.50;16.42;;;25.00;53.30;;;;;;5094850;28;20106;-54
2022/05/20 07:32:10;;;;;;;21.92;16.25;;;24.80;53.60;;;;;;5094749;28;20434;-55
2022/05/20 07:34:36;;;;;;;26.25;16.83;;;24.80;53.60;;;;;;5060141;28;20032;-57
2022/05/20 07:37:02;;;;;;;21.48;16.45;;;24.80;53.90;;;;;;5094825;28;20378;-57
2022/05/20 07:39:28;;;;;;;28.10;16.42;;;24.80;53.70;;;;;;5094581;28;20445;-54
2022/05/20 07:41:55;;;;;;;26.05;16.52;;;24.80;53.80;;;;;;5094806;28;20042;-56
2022/05/20 07:44:21;;;;;;;25.38;16.65;;;24.80;53.50;;;;;;5094841;28;20123;-57
2022/05/20 07:46:47;;;;;;;21.92;17.08;;;24.80;53.50;;;;;;5094941;28;20474;-58
2022/05/20 07:49:13;;;;;;;24.50;17.50;;;24.80;53.40;;;;;;5094664;28;20437;-57
2022/05/20 07:51:41;;;;;;;25.52;17.63;;;24.80;53.30;;;;;;5076436;28;20466;-58
2022/05/20 07:54:12;;;;;;;20.30;17.17;;;24.80;53.30;;;;;;5094678;28;20024;-57
2022/05/20 07:56:41;;;;;;;28.60;18.27;;;24.80;53.40;;;;;;5043821;28;20046;-54
2022/05/20 07:59:10;;;;;;;28.23;18.13;;;24.90;53.70;;;;;;5094444;28;20016;-58
2022/05/20 08:01:36;;;;;;;24.80;18.73;;;25.00;53.80;;;;;;5094322;28;20012;-59
2022/05/20 08:06:55;;;;;;;32.13;19.77;;;24.70;53.20;;;;;;5095179;28;20016;-58
2022/05/20 08:09:21;;;;;;;24.20;20.50;;;24.40;53.60;;;;;;5094550;28;20093;-57
2022/05/20 08:11:49;;;;;;;30.73;20.00;;;24.20;53.90;;;;;;5094688;28;20054;-57
2022/05/20 08:14:16;;;;;;;30.65;19.33;;;24.10;54.20;;;;;;5094508;28;20024;-58
2022/05/20 08:16:42;;;;;;;26.88;19.75;;;24.00;54.40;;;;;;5094178;28;20128;-58
2022/05/20 08:19:08;;;;;;;31.92;20.10;;;24.00;54.40;;;;;;5075833;28;20016;-56
2022/05/20 08:21:34;;;;;;;39.45;19.45;;;24.10;54.70;;;;;;5075875;28;20021;-58
2022/05/20 08:24:00;;;;;;;36.17;21.23;;;24.20;55.10;;;;;;5075560;28;20475;-57
2022/05/20 08:26:25;;;;;;;26.88;19.45;;;24.30;54.40;;;;;;5075934;28;20016;-57
2022/05/20 08:28:51;;;;;;;30.05;19.92;;;24.40;54.50;;;;;;5076436;28;20363;-58
2022/05/20 08:31:17;;;;;;;32.47;19.33;;;24.40;54.60;;;;;;5094530;28;20443;-58
2022/05/20 08:33:43;;;;;;;24.60;19.73;;;24.50;54.60;;;;;;5094174;28;20455;-58
2022/05/20 08:36:09;;;;;;;22.17;18.73;;;24.60;54.30;;;;;;5094209;28;20016;-58
2022/05/20 08:38:35;;;;;;;30.88;19.27;;;24.60;54.10;;;;;;5075961;28;20524;-57
2022/05/20 08:41:01;;;;;;;21.13;18.83;;;24.60;53.90;;;;;;5075985;28;20016;-57
2022/05/20 08:43:31;;;;;;;33.72;21.95;;;24.80;54.10;;;;;;5075952;28;20012;-56
2022/05/20 08:45:58;;;;;;;27.92;21.65;;;24.60;53.70;;;;;;5075518;28;20024;-56
2022/05/20 08:48:25;;;;;;;32.83;20.85;;;24.40;54.10;;;;;;5094189;28;20012;-57
2022/05/20 08:50:55;;;;;;;27.70;20.45;;;24.10;54.50;;;;;;5042306;28;20043;-56
2022/05/20 08:53:32;;;;;;;21.90;19.53;;;24.00;54.50;;;;;;5093853;28;20074;-57
2022/05/20 08:56:10;;;;;;;24.90;20.63;;;24.10;54.40;;;;;;5093857;28;20039;-56
2022/05/20 08:58:37;;;;;;;26.85;19.48;;;24.00;55.10;;;;;;5093590;28;20107;-57
2022/05/20 09:01:03;;;;;;;29.13;19.90;;;24.00;55.90;;;;;;5093762;28;20023;-57
2022/05/20 09:03:30;;;;;;;31.75;19.83;;;23.90;55.30;;;;;;5093729;28;20024;-56
2022/05/20 09:06:10;;;;;;;23.65;20.50;;;23.90;55.50;;;;;;5075042;28;20030;-57
2022/05/20 09:08:36;;;;;;;32.08;20.73;;;23.90;55.70;;;;;;5092254;28;20047;-57
2022/05/20 09:11:04;;;;;;;42.33;20.38;;;23.80;56.00;;;;;;5092665;28;20073;-60
2022/05/20 09:16:34;;;;;;;35.85;21.50;;;24.20;55.80;;;;;;5093554;28;20035;-59
2022/05/20 09:19:08;;;;;;;33.40;22.00;;;24.10;55.60;;;;;;5076695;28;20077;-59
2022/05/20 09:21:39;;;;;;;38.90;22.98;;;23.90;56.40;;;;;;5093144;28;20020;-58
2022/05/20 09:24:08;;;;;;;32.17;21.55;;;23.80;56.60;;;;;;5075138;28;20043;-58
2022/05/20 09:26:38;;;;;;;30.42;21.58;;;23.80;57.00;;;;;;5075848;28;20108;-59
2022/05/20 09:29:16;;;;;;;31.83;21.30;;;23.70;56.70;;;;;;5058498;28;20103;-57
2022/05/20 09:31:48;;;;;;;24.10;21.30;;;23.90;57.00;;;;;;5077160;28;20084;-58
2022/05/20 09:34:16;;;;;;;29.30;20.80;;;23.80;56.90;;;;;;5093831;28;20047;-56
2022/05/20 09:37:00;;;;;;;37.95;21.10;;;23.90;57.00;;;;;;5075618;28;20008;-57
2022/05/20 09:39:31;;;;;;;30.65;22.00;;;24.00;56.70;;;;;;5093459;28;20024;-58
2022/05/20 09:41:58;;;;;;;33.92;22.70;;;24.00;56.70;;;;;;5092869;28;20020;-57
2022/05/20 09:44:31;;;;;;;36.22;22.17;;;24.00;56.90;;;;;;5092752;28;20032;-58
2022/05/20 09:47:13;;;;;;;29.25;22.25;;;23.90;57.30;;;;;;5057929;28;20038;-58
2022/05/20 09:49:42;;;;;;;;;;;23.90;57.20;;;;;;5093373;28;20095;-56
2022/05/20 09:52:41;;;;;;;30.92;22.25;;;23.90;57.50;;;;;;5093138;28;19908;-54
2022/05/20 09:55:22;;;;;;;30.48;20.85;;;23.60;57.90;;;;;;5062591;28;20126;-50
2022/05/20 09:57:48;;;;;;;37.15;19.95;;;23.70;58.40;;;;;;5074265;28;20020;-53
2022/05/20 10:00:26;;;;;;;35.03;18.80;;;24.10;57.80;;;;;;5092566;28;20115;-54
2022/05/20 10:03:10;;;;;;;36.92;17.42;;;24.30;57.30;;;;;;5075732;28;20028;-54
2022/05/20 10:06:26;;;;;;;41.85;16.50;;;24.40;56.70;;;;;;5093118;28;20031;-55
2022/05/20 10:09:01;;;;;;;29.10;15.90;;;24.50;56.60;;;;;;5030866;28;20075;-53
2022/05/20 10:11:38;;;;;;;27.80;15.48;;;24.40;56.20;;;;;;5015334;28;20033;-54
2022/05/20 10:15:01;;;;;;;24.30;14.27;;;24.50;56.30;;;;;;5030693;28;20083;-55
2022/05/20 10:18:02;;;;;;;27.02;13.48;;;24.60;56.10;;;;;;4955671;28;20031;-54
2022/05/20 10:20:39;;;;;;;19.38;12.93;;;24.50;55.90;;;;;;4957906;28;20047;-52
2022/05/20 10:23:15;;;;;;;16.05;11.00;;;24.60;55.70;;;;;;4971877;28;20039;-54
2022/05/20 10:25:51;;;;;;;19.60;11.15;;;24.60;55.60;;;;;;4955620;28;20046;-52
2022/05/20 10:34:16;;;;;;;14.57;9.68;;;24.50;55.60;;;;;;4971965;28;20041;-59
2022/05/20 10:37:20;;;;;;;19.23;9.35;;;24.60;55.50;;;;;;4955475;28;20106;-59
2022/05/20 10:40:13;;;;;;;16.42;9.30;;;24.60;55.40;;;;;;4961415;28;20042;-59
2022/05/20 10:43:03;;;;;;;19.52;9.23;;;24.60;55.50;;;;;;4971101;28;20018;-59
2022/05/20 10:48:42;;;;;;;20.83;10.55;;;24.60;55.60;;;;;;4995887;28;20045;-58
2022/05/20 10:51:21;;;;;;;42.70;12.05;;;24.60;57.20;;;;;;5009807;28;20026;-59
2022/05/20 10:53:56;;;;;;;33.80;10.43;;;25.00;57.80;;;;;;5089203;28;20460;-58
2022/05/20 10:56:48;;;;;;;36.40;10.10;;;25.30;57.70;;;;;;5092058;28;20478;-56
2022/05/20 10:59:17;;;;;;;25.55;10.55;;;25.50;57.70;;;;;;5073914;28;20008;-58
2022/05/20 11:02:00;;;;;;;30.67;10.35;;;25.70;57.60;;;;;;5092057;28;20043;-56
2022/05/20 11:04:51;;;;;;;30.08;10.57;;;25.80;57.60;;;;;;5092082;28;20028;-59
2022/05/20 11:07:26;;;;;;;26.80;10.25;;;25.80;58.30;;;;;;5083402;28;20060;-47
2022/05/20 11:10:07;;;;;;;37.13;11.10;;;25.80;58.30;;;;;;5092119;28;20355;-49
2022/05/20 11:13:01;;;;;;;32.35;10.93;;;25.90;58.30;;;;;;5092112;28;20074;-47
2022/05/20 11:15:34;;;;;;;34.75;11.45;;;26.00;58.60;;;;;;5076670;28;20020;-47
2022/05/20 11:18:34;;;;;;;41.20;10.52;;;26.20;59.20;;;;;;5091531;28;20080;-46
2022/05/20 11:21:28;;;;;;;30.80;10.45;;;26.30;59.80;;;;;;5072984;28;20016;-45
2022/05/20 11:24:10;;;;;;;30.85;10.48;;;26.30;59.20;;;;;;5091678;28;20051;-43
2022/05/20 11:26:41;;;;;;;38.92;10.45;;;26.40;59.50;;;;;;5091684;28;20024;-42
2022/05/20 11:29:38;;;;;;;21.85;10.07;;;26.60;60.30;;;;;;5091397;28;20012;-45
2022/05/20 11:32:12;;;;;;;25.02;13.18;;;26.60;59.80;;;;;;5072893;28;20096;-45
2022/05/20 11:34:57;;;;;;;29.80;12.52;;;26.40;59.30;;;;;;5091361;28;20095;-47
2022/05/20 11:37:35;;;;;;;39.33;15.30;;;26.20;61.00;;;;;;5090732;28;20125;-46
2022/05/20 11:40:14;;;;;;;35.03;16.92;;;25.80;62.30;;;;;;5073118;28;20023;-45
2022/05/20 11:42:50;;;;;;;42.08;17.08;;;26.00;62.50;;;;;;5090588;28;20024;-44
2022/05/20 11:45:17;;;;;;;41.70;19.33;;;25.80;62.40;;;;;;5073241;28;20020;-44
2022/05/20 11:48:04;;;;;;;45.67;20.42;;;25.90;62.50;;;;;;5091312;28;20020;-52
2022/05/20 11:50:49;;;;;;;37.05;22.30;;;25.90;62.60;;;;;;5091439;28;20012;-56
2022/05/20 11:53:30;;;;;;;34.10;24.52;;;25.70;62.60;;;;;;5091944;28;20418;-51
2022/05/20 11:56:00;;;;;;;33.35;24.65;;;25.50;62.80;;;;;;5074241;28;20047;-54
2022/05/20 11:59:09;;;;;;;34.60;27.08;;;25.40;63.20;;;;;;5073352;28;20035;-59
2022/05/20 12:01:36;;;;;;;34.90;28.58;;;25.20;63.90;;;;;;5040900;28;20033;-53
2022/05/20 12:04:08;;;;;;;31.63;28.20;;;25.00;64.70;;;;;;5019068;28;20039;-52
2022/05/20 12:07:10;;;;;;;41.85;28.45;;;25.00;64.40;;;;;;5020747;28;20074;-53
2022/05/20 12:09:42;;;;;;;36.38;28.60;;;25.00;64.80;;;;;;5033753;28;20067;-51
2022/05/20 12:12:09;;;;;;;32.72;25.02;;;25.10;65.00;;;;;;5036342;28;20013;-49
2022/05/20 12:14:56;;;;;;;43.05;32.20;;;25.40;64.60;;;;;;5051914;28;20020;-50
2022/05/20 12:17:51;;;;;;;39.65;30.85;;;24.50;65.20;;;;;;5052034;28;20132;-49
2022/05/20 12:26:24;;;;;;;34.80;27.25;;;23.90;68.30;;;;;;5051825;28;20466;-50
2022/05/20 12:28:51;;;;;;;35.20;26.48;;;23.40;71.60;;;;;;5019039;28;20021;-49
2022/05/20 12:31:39;;;;;;;34.00;25.60;;;23.00;72.70;;;;;;5051274;28;20056;-48
2022/05/20 12:34:14;;;;;;;31.67;23.13;;;23.20;73.00;;;;;;5051809;28;20025;-50
2022/05/20 12:36:41;;;;;;;28.35;20.90;;;23.40;72.80;;;;;;5074269;28;20036;-48
2022/05/20 12:39:08;;;;;;;25.63;19.15;;;24.00;71.50;;;;;;5075415;28;20096;-47
2022/05/20 12:41:49;;;;;;;29.13;18.27;;;24.40;69.80;;;;;;5093162;28;20024;-49
2022/05/20 12:44:21;;;;;;;22.88;17.90;;;24.80;68.50;;;;;;5093362;28;20028;-53
2022/05/20 12:47:08;;;;;;;30.48;17.27;;;25.10;67.60;;;;;;5075002;28;20050;-54
2022/05/20 12:49:44;;;;;;;29.00;17.17;;;25.10;66.90;;;;;;5093275;28;20023;-55
2022/05/20 12:52:24;;;;;;;22.13;16.88;;;25.20;67.60;;;;;;5074747;28;20022;-54
2022/05/20 12:55:01;;;;;;;24.75;17.40;;;25.00;67.00;;;;;;5093295;28;20089;-54
2022/05/20 12:57:31;;;;;;;17.80;15.02;;;25.10;67.50;;;;;;5075237;28;20065;-56
2022/05/20 13:00:08;;;;;;;23.52;16.67;;;25.30;67.20;;;;;;5074680;28;20040;-54
2022/05/20 13:02:39;;;;;;;21.92;16.58;;;25.30;66.50;;;;;;5092726;28;20107;-55
2022/05/20 13:05:49;;;;;;;26.48;14.77;;;25.40;65.70;;;;;;5074003;28;20028;-57
2022/05/20 13:08:20;;;;;;;24.60;16.55;;;25.40;67.40;;;;;;5073948;28;20012;-52
2022/05/20 13:10:46;;;;;;;27.40;16.08;;;24.80;68.10;;;;;;5073657;28;20035;-55
2022/05/20 13:13:23;;;;;;;29.13;15.70;;;25.10;68.10;;;;;;5092879;28;20009;-49
2022/05/20 13:16:03;;;;;;;26.88;15.82;;;25.20;67.30;;;;;;5075054;28;20028;-47
2022/05/20 13:18:32;;;;;;;29.85;15.27;;;25.20;66.90;;;;;;5093096;28;20138;-54
2022/05/20 13:20:59;;;;;;;25.88;14.27;;;25.30;66.70;;;;;;5092881;28;20112;-49
2022/05/20 13:23:33;;;;;;;20.48;13.65;;;25.20;66.40;;;;;;5074748;28;20051;-50
2022/05/20 13:25:59;;;;;;;27.15;14.05;;;25.20;66.20;;;;;;5093318;28;20016;-37
2022/05/20 13:28:35;;;;;;;22.17;12.93;;;25.20;66.30;;;;;;5093790;28;20414;-56
2022/05/20 13:31:05;;;;;;;19.17;12.40;;;25.20;66.10;;;;;;5093930;28;20096;-55
2022/05/20 13:33:32;;;;;;;21.73;12.43;;;25.20;66.00;;;;;;5093899;28;20020;-56
2022/05/20 13:35:59;;;;;;;27.58;12.25;;;25.20;65.90;;;;;;5093568;28;20020;-59
2022/05/20 13:38:27;;;;;;;16.73;11.35;;;25.10;65.80;;;;;;5093731;28;20077;-56